sensor_id;sensor_type;location;lat;lon;timestamp;temperature;humidity
14188;DHT22;7175;51.978;5.330;2022-11-15T00:01:14;7.40;99.90
14188;DHT22;7175;51.978;5.330;2022-11-15T00:03:44;7.50;99.90
14188;DHT22;7175;51.978;5.330;2022-11-15T00:06:12;7.50;99.90
14188;DHT22;7175;51.978;5.330;2022-11-15T00:08:42;7.40;99.90
14188;DHT22;7175;51.978;5.330;2022-11-15T00:11:11;7.50;99.90
14188;DHT22;7175;51.978;5.330;2022-11-15T00:13:40;7.50;99.90
14188;DHT22;7175;51.978;5.330;2022-11-15T00:16:09;7.50;99.90
14188;DHT22;7175;51.978;5.330;2022-11-15T00:18:37;7.50;99.90
14188;DHT22;7175;51.978;5.330;2022-11-15T00:21:09;7.50;99.90
14188;DHT22;7175;51.978;5.330;2022-11-15T00:23:37;7.50;99.90
14188;DHT22;7175;51.978;5.330;2022-11-15T00:26:08;7.50;99.90
14188;DHT22;7175;51.978;5.330;2022-11-15T00:28:39;7.50;99.90
14188;DHT22;7175;51.978;5.330;2022-11-15T00:31:11;7.50;99.90
14188;DHT22;7175;51.978;5.330;2022-11-15T00:33:40;7.50;99.90
14188;DHT22;7175;51.978;5.330;2022-11-15T00:36:10;7.50;99.90
14188;DHT22;7175;51.978;5.330;2022-11-15T00:38:39;7.60;99.90
14188;DHT22;7175;51.978;5.330;2022-11-15T00:41:09;7.60;99.90
14188;DHT22;7175;51.978;5.330;2022-11-15T00:43:37;7.60;99.90
14188;DHT22;7175;51.978;5.330;2022-11-15T00:46:07;7.60;99.90
14188;DHT22;7175;51.978;5.330;2022-11-15T00:48:36;7.60;99.90
14188;DHT22;7175;51.978;5.330;2022-11-15T00:51:05;7.60;99.90
14188;DHT22;7175;51.978;5.330;2022-11-15T00:53:33;7.60;99.90
14188;DHT22;7175;51.978;5.330;2022-11-15T00:56:01;7.70;99.90
14188;DHT22;7175;51.978;5.330;2022-11-15T00:58:31;7.70;99.90
14188;DHT22;7175;51.978;5.330;2022-11-15T01:01:06;7.70;99.90
14188;DHT22;7175;51.978;5.330;2022-11-15T01:03:35;7.70;99.90
14188;DHT22;7175;51.978;5.330;2022-11-15T01:06:04;7.70;99.90
14188;DHT22;7175;51.978;5.330;2022-11-15T01:08:32;7.70;99.90
14188;DHT22;7175;51.978;5.330;2022-11-15T01:11:02;7.80;99.90
14188;DHT22;7175;51.978;5.330;2022-11-15T01:13:33;7.80;99.90
14188;DHT22;7175;51.978;5.330;2022-11-15T01:16:06;7.80;99.90
14188;DHT22;7175;51.978;5.330;2022-11-15T01:18:34;7.80;99.90
14188;DHT22;7175;51.978;5.330;2022-11-15T01:21:07;7.90;99.90
14188;DHT22;7175;51.978;5.330;2022-11-15T01:23:35;7.90;99.90
14188;DHT22;7175;51.978;5.330;2022-11-15T01:26:06;7.90;99.90
14188;DHT22;7175;51.978;5.330;2022-11-15T01:28:38;7.90;99.90
14188;DHT22;7175;51.978;5.330;2022-11-15T01:31:09;8.00;99.90
14188;DHT22;7175;51.978;5.330;2022-11-15T01:33:39;8.00;99.90
14188;DHT22;7175;51.978;5.330;2022-11-15T01:36:10;8.00;99.90
14188;DHT22;7175;51.978;5.330;2022-11-15T01:38:38;8.00;99.90
14188;DHT22;7175;51.978;5.330;2022-11-15T01:41:14;8.10;99.90
14188;DHT22;7175;51.978;5.330;2022-11-15T01:43:44;8.10;99.90
14188;DHT22;7175;51.978;5.330;2022-11-15T01:46:29;8.10;99.90
14188;DHT22;7175;51.978;5.330;2022-11-15T01:49:02;8.10;99.90
14188;DHT22;7175;51.978;5.330;2022-11-15T01:51:33;8.20;99.90
14188;DHT22;7175;51.978;5.330;2022-11-15T01:54:04;8.20;99.90
14188;DHT22;7175;51.978;5.330;2022-11-15T01:56:38;8.30;99.90
14188;DHT22;7175;51.978;5.330;2022-11-15T01:59:10;8.30;99.90
14188;DHT22;7175;51.978;5.330;2022-11-15T02:01:38;8.30;99.90
14188;DHT22;7175;51.978;5.330;2022-11-15T02:04:10;8.40;99.90
14188;DHT22;7175;51.978;5.330;2022-11-15T02:06:41;8.40;99.90
14188;DHT22;7175;51.978;5.330;2022-11-15T02:09:11;8.40;99.90
14188;DHT22;7175;51.978;5.330;2022-11-15T02:11:40;8.50;99.90
14188;DHT22;7175;51.978;5.330;2022-11-15T02:14:10;8.50;99.90
14188;DHT22;7175;51.978;5.330;2022-11-15T02:16:45;8.50;99.90
14188;DHT22;7175;51.978;5.330;2022-11-15T02:19:34;8.50;99.90
14188;DHT22;7175;51.978;5.330;2022-11-15T02:22:18;8.60;99.90
14188;DHT22;7175;51.978;5.330;2022-11-15T02:25:03;8.60;99.90
14188;DHT22;7175;51.978;5.330;2022-11-15T02:30:41;8.70;99.90
14188;DHT22;7175;51.978;5.330;2022-11-15T02:33:20;8.70;99.90
14188;DHT22;7175;51.978;5.330;2022-11-15T02:35:57;8.70;99.90
14188;DHT22;7175;51.978;5.330;2022-11-15T02:38:31;8.80;99.90
14188;DHT22;7175;51.978;5.330;2022-11-15T02:41:04;8.80;99.90
14188;DHT22;7175;51.978;5.330;2022-11-15T02:43:38;8.90;99.90
14188;DHT22;7175;51.978;5.330;2022-11-15T02:46:32;8.90;99.90
14188;DHT22;7175;51.978;5.330;2022-11-15T02:49:18;8.90;99.90
14188;DHT22;7175;51.978;5.330;2022-11-15T02:51:48;9.00;99.90
14188;DHT22;7175;51.978;5.330;2022-11-15T02:54:20;9.00;99.90
14188;DHT22;7175;51.978;5.330;2022-11-15T02:56:51;9.00;99.90
14188;DHT22;7175;51.978;5.330;2022-11-15T02:59:43;9.10;99.90
14188;DHT22;7175;51.978;5.330;2022-11-15T03:02:24;9.10;99.90
14188;DHT22;7175;51.978;5.330;2022-11-15T03:04:58;9.10;99.90
14188;DHT22;7175;51.978;5.330;2022-11-15T03:07:30;9.20;99.90
14188;DHT22;7175;51.978;5.330;2022-11-15T03:10:06;9.30;99.90
14188;DHT22;7175;51.978;5.330;2022-11-15T03:12:40;9.30;99.90
14188;DHT22;7175;51.978;5.330;2022-11-15T03:15:15;9.40;99.90
14188;DHT22;7175;51.978;5.330;2022-11-15T03:17:51;9.40;99.90
14188;DHT22;7175;51.978;5.330;2022-11-15T03:20:20;9.50;99.90
14188;DHT22;7175;51.978;5.330;2022-11-15T03:22:49;9.40;99.90
14188;DHT22;7175;51.978;5.330;2022-11-15T03:25:22;9.50;99.90
14188;DHT22;7175;51.978;5.330;2022-11-15T03:27:53;9.50;99.90
14188;DHT22;7175;51.978;5.330;2022-11-15T03:30:23;9.60;99.90
14188;DHT22;7175;51.978;5.330;2022-11-15T03:32:54;9.60;99.90
14188;DHT22;7175;51.978;5.330;2022-11-15T03:35:25;9.70;99.90
14188;DHT22;7175;51.978;5.330;2022-11-15T03:37:59;9.60;99.90
14188;DHT22;7175;51.978;5.330;2022-11-15T03:40:34;9.80;99.90
14188;DHT22;7175;51.978;5.330;2022-11-15T03:43:08;9.80;99.90
14188;DHT22;7175;51.978;5.330;2022-11-15T03:45:43;9.90;99.90
14188;DHT22;7175;51.978;5.330;2022-11-15T03:48:15;10.00;99.90
14188;DHT22;7175;51.978;5.330;2022-11-15T03:50:46;10.00;99.90
14188;DHT22;7175;51.978;5.330;2022-11-15T03:53:16;10.10;99.90
14188;DHT22;7175;51.978;5.330;2022-11-15T03:55:44;10.10;99.90
14188;DHT22;7175;51.978;5.330;2022-11-15T03:58:12;10.10;99.90
14188;DHT22;7175;51.978;5.330;2022-11-15T04:00:40;10.20;99.90
14188;DHT22;7175;51.978;5.330;2022-11-15T04:03:08;10.10;99.90
14188;DHT22;7175;51.978;5.330;2022-11-15T04:05:37;10.10;99.90
14188;DHT22;7175;51.978;5.330;2022-11-15T04:08:05;10.10;99.90
14188;DHT22;7175;51.978;5.330;2022-11-15T04:10:33;10.20;99.90
14188;DHT22;7175;51.978;5.330;2022-11-15T04:13:02;10.20;99.90
14188;DHT22;7175;51.978;5.330;2022-11-15T04:15:31;10.20;99.90
14188;DHT22;7175;51.978;5.330;2022-11-15T04:17:59;10.30;99.90
14188;DHT22;7175;51.978;5.330;2022-11-15T04:20:29;10.40;99.90
14188;DHT22;7175;51.978;5.330;2022-11-15T04:23:18;10.40;99.90
14188;DHT22;7175;51.978;5.330;2022-11-15T04:26:05;10.40;99.90
14188;DHT22;7175;51.978;5.330;2022-11-15T04:28:33;10.30;99.90
14188;DHT22;7175;51.978;5.330;2022-11-15T04:31:02;10.30;99.90
14188;DHT22;7175;51.978;5.330;2022-11-15T04:33:30;10.30;99.90
14188;DHT22;7175;51.978;5.330;2022-11-15T04:35:58;10.40;99.90
14188;DHT22;7175;51.978;5.330;2022-11-15T04:38:45;10.40;99.90
14188;DHT22;7175;51.978;5.330;2022-11-15T04:41:13;10.40;99.90
14188;DHT22;7175;51.978;5.330;2022-11-15T04:43:41;10.40;99.90
14188;DHT22;7175;51.978;5.330;2022-11-15T04:46:09;10.40;99.90
14188;DHT22;7175;51.978;5.330;2022-11-15T04:48:37;10.40;99.90
14188;DHT22;7175;51.978;5.330;2022-11-15T04:51:06;10.40;99.90
14188;DHT22;7175;51.978;5.330;2022-11-15T04:53:34;10.40;99.90
14188;DHT22;7175;51.978;5.330;2022-11-15T04:56:03;10.40;99.90
14188;DHT22;7175;51.978;5.330;2022-11-15T04:58:32;10.40;99.90
14188;DHT22;7175;51.978;5.330;2022-11-15T05:01:06;10.50;99.90
14188;DHT22;7175;51.978;5.330;2022-11-15T05:03:35;10.50;99.90
14188;DHT22;7175;51.978;5.330;2022-11-15T05:06:21;10.50;99.90
14188;DHT22;7175;51.978;5.330;2022-11-15T05:08:49;10.50;99.90
14188;DHT22;7175;51.978;5.330;2022-11-15T05:11:18;10.60;99.90
14188;DHT22;7175;51.978;5.330;2022-11-15T05:13:47;10.60;99.90
14188;DHT22;7175;51.978;5.330;2022-11-15T05:16:15;10.60;99.90
14188;DHT22;7175;51.978;5.330;2022-11-15T05:18:43;10.70;99.90
14188;DHT22;7175;51.978;5.330;2022-11-15T05:21:13;10.60;99.90
14188;DHT22;7175;51.978;5.330;2022-11-15T05:23:42;10.70;99.90
14188;DHT22;7175;51.978;5.330;2022-11-15T05:26:10;10.60;99.90
14188;DHT22;7175;51.978;5.330;2022-11-15T05:28:39;10.60;99.90
14188;DHT22;7175;51.978;5.330;2022-11-15T05:31:09;10.60;99.90
14188;DHT22;7175;51.978;5.330;2022-11-15T05:33:38;10.80;99.90
14188;DHT22;7175;51.978;5.330;2022-11-15T05:36:12;10.80;99.90
14188;DHT22;7175;51.978;5.330;2022-11-15T05:38:42;10.80;99.90
14188;DHT22;7175;51.978;5.330;2022-11-15T05:41:10;10.90;99.90
14188;DHT22;7175;51.978;5.330;2022-11-15T05:43:42;10.90;99.90
14188;DHT22;7175;51.978;5.330;2022-11-15T05:46:12;10.90;99.90
14188;DHT22;7175;51.978;5.330;2022-11-15T05:48:44;10.90;99.90
14188;DHT22;7175;51.978;5.330;2022-11-15T05:51:13;10.90;99.90
14188;DHT22;7175;51.978;5.330;2022-11-15T05:53:43;11.00;99.90
14188;DHT22;7175;51.978;5.330;2022-11-15T05:56:12;11.00;99.90
14188;DHT22;7175;51.978;5.330;2022-11-15T05:58:41;11.00;99.90
14188;DHT22;7175;51.978;5.330;2022-11-15T06:01:10;11.00;99.90
14188;DHT22;7175;51.978;5.330;2022-11-15T06:03:38;11.00;99.90
14188;DHT22;7175;51.978;5.330;2022-11-15T06:06:06;11.00;99.90
14188;DHT22;7175;51.978;5.330;2022-11-15T06:08:41;10.90;99.90
14188;DHT22;7175;51.978;5.330;2022-11-15T06:11:10;11.00;99.90
14188;DHT22;7175;51.978;5.330;2022-11-15T06:13:38;11.00;99.90
14188;DHT22;7175;51.978;5.330;2022-11-15T06:16:07;11.00;99.90
14188;DHT22;7175;51.978;5.330;2022-11-15T06:18:36;11.00;99.90
14188;DHT22;7175;51.978;5.330;2022-11-15T06:21:04;11.00;99.90
14188;DHT22;7175;51.978;5.330;2022-11-15T06:23:34;11.00;99.90
14188;DHT22;7175;51.978;5.330;2022-11-15T06:26:03;11.10;99.90
14188;DHT22;7175;51.978;5.330;2022-11-15T06:28:32;11.10;99.90
14188;DHT22;7175;51.978;5.330;2022-11-15T06:31:02;11.10;99.90
14188;DHT22;7175;51.978;5.330;2022-11-15T06:33:32;11.10;99.90
14188;DHT22;7175;51.978;5.330;2022-11-15T06:36:01;11.10;99.90
14188;DHT22;7175;51.978;5.330;2022-11-15T06:38:29;11.00;99.90
14188;DHT22;7175;51.978;5.330;2022-11-15T06:41:01;11.00;99.90
14188;DHT22;7175;51.978;5.330;2022-11-15T06:43:30;11.00;99.90
14188;DHT22;7175;51.978;5.330;2022-11-15T06:45:59;11.00;99.90
14188;DHT22;7175;51.978;5.330;2022-11-15T06:48:28;11.10;99.90
14188;DHT22;7175;51.978;5.330;2022-11-15T06:51:00;11.00;99.90
14188;DHT22;7175;51.978;5.330;2022-11-15T06:53:29;11.10;99.90
14188;DHT22;7175;51.978;5.330;2022-11-15T06:55:59;11.10;99.90
14188;DHT22;7175;51.978;5.330;2022-11-15T06:58:28;11.10;99.90
14188;DHT22;7175;51.978;5.330;2022-11-15T07:00:59;11.10;99.90
14188;DHT22;7175;51.978;5.330;2022-11-15T07:03:27;11.10;99.90
14188;DHT22;7175;51.978;5.330;2022-11-15T07:05:58;11.00;99.90
14188;DHT22;7175;51.978;5.330;2022-11-15T07:08:33;11.10;99.90
14188;DHT22;7175;51.978;5.330;2022-11-15T07:11:03;11.10;99.90
14188;DHT22;7175;51.978;5.330;2022-11-15T07:13:32;11.10;99.90
14188;DHT22;7175;51.978;5.330;2022-11-15T07:16:02;11.10;99.90
14188;DHT22;7175;51.978;5.330;2022-11-15T07:18:30;11.10;99.90
14188;DHT22;7175;51.978;5.330;2022-11-15T07:21:02;11.10;99.90
14188;DHT22;7175;51.978;5.330;2022-11-15T07:23:30;11.10;99.90
14188;DHT22;7175;51.978;5.330;2022-11-15T07:26:00;11.10;99.90
14188;DHT22;7175;51.978;5.330;2022-11-15T07:28:28;11.10;99.90
14188;DHT22;7175;51.978;5.330;2022-11-15T07:30:57;11.10;99.90
14188;DHT22;7175;51.978;5.330;2022-11-15T07:33:25;11.20;99.90
14188;DHT22;7175;51.978;5.330;2022-11-15T07:35:53;11.20;99.90
14188;DHT22;7175;51.978;5.330;2022-11-15T07:38:22;11.20;99.90
14188;DHT22;7175;51.978;5.330;2022-11-15T07:40:56;11.30;99.90
14188;DHT22;7175;51.978;5.330;2022-11-15T07:43:24;11.30;99.90
14188;DHT22;7175;51.978;5.330;2022-11-15T07:45:55;11.40;99.90
14188;DHT22;7175;51.978;5.330;2022-11-15T07:48:25;11.40;99.90
14188;DHT22;7175;51.978;5.330;2022-11-15T07:51:11;11.40;99.90
14188;DHT22;7175;51.978;5.330;2022-11-15T07:53:42;11.40;99.90
14188;DHT22;7175;51.978;5.330;2022-11-15T07:56:10;11.40;99.90
14188;DHT22;7175;51.978;5.330;2022-11-15T07:58:39;11.40;99.90
14188;DHT22;7175;51.978;5.330;2022-11-15T08:01:09;11.30;99.90
14188;DHT22;7175;51.978;5.330;2022-11-15T08:03:38;11.30;99.90
14188;DHT22;7175;51.978;5.330;2022-11-15T08:06:06;11.30;99.90
14188;DHT22;7175;51.978;5.330;2022-11-15T08:08:34;11.30;99.90
14188;DHT22;7175;51.978;5.330;2022-11-15T08:11:04;11.30;99.90
14188;DHT22;7175;51.978;5.330;2022-11-15T08:13:32;11.30;99.90
14188;DHT22;7175;51.978;5.330;2022-11-15T08:16:01;11.40;99.90
14188;DHT22;7175;51.978;5.330;2022-11-15T08:18:32;11.40;99.90
14188;DHT22;7175;51.978;5.330;2022-11-15T08:21:00;11.50;99.90
14188;DHT22;7175;51.978;5.330;2022-11-15T08:23:29;11.50;99.90
14188;DHT22;7175;51.978;5.330;2022-11-15T08:26:00;11.50;99.90
14188;DHT22;7175;51.978;5.330;2022-11-15T08:28:30;11.50;99.90
14188;DHT22;7175;51.978;5.330;2022-11-15T08:30:59;11.50;99.90
14188;DHT22;7175;51.978;5.330;2022-11-15T08:33:27;11.50;99.90
14188;DHT22;7175;51.978;5.330;2022-11-15T08:35:56;11.60;99.90
14188;DHT22;7175;51.978;5.330;2022-11-15T08:38:25;11.60;99.90
14188;DHT22;7175;51.978;5.330;2022-11-15T08:41:01;11.60;99.90
14188;DHT22;7175;51.978;5.330;2022-11-15T08:43:30;11.70;99.90
14188;DHT22;7175;51.978;5.330;2022-11-15T08:45:59;11.70;99.90
14188;DHT22;7175;51.978;5.330;2022-11-15T08:48:27;11.70;99.90
14188;DHT22;7175;51.978;5.330;2022-11-15T08:50:56;11.80;99.90
14188;DHT22;7175;51.978;5.330;2022-11-15T08:53:24;11.90;99.90
14188;DHT22;7175;51.978;5.330;2022-11-15T08:55:52;11.90;99.90
14188;DHT22;7175;51.978;5.330;2022-11-15T08:58:20;12.00;99.90
14188;DHT22;7175;51.978;5.330;2022-11-15T09:00:50;12.00;99.90
14188;DHT22;7175;51.978;5.330;2022-11-15T09:03:18;12.10;99.90
14188;DHT22;7175;51.978;5.330;2022-11-15T09:05:46;12.10;99.90
14188;DHT22;7175;51.978;5.330;2022-11-15T09:08:14;12.10;99.90
14188;DHT22;7175;51.978;5.330;2022-11-15T09:11:03;12.20;99.90
14188;DHT22;7175;51.978;5.330;2022-11-15T09:13:31;12.20;99.90
14188;DHT22;7175;51.978;5.330;2022-11-15T09:16:01;12.20;99.90
14188;DHT22;7175;51.978;5.330;2022-11-15T09:18:30;12.20;99.90
14188;DHT22;7175;51.978;5.330;2022-11-15T09:20:59;12.20;99.90
14188;DHT22;7175;51.978;5.330;2022-11-15T09:23:29;12.30;99.90
14188;DHT22;7175;51.978;5.330;2022-11-15T09:26:01;12.20;99.90
14188;DHT22;7175;51.978;5.330;2022-11-15T09:28:30;12.30;99.90
14188;DHT22;7175;51.978;5.330;2022-11-15T09:31:03;12.40;99.90
14188;DHT22;7175;51.978;5.330;2022-11-15T09:33:32;12.40;99.90
14188;DHT22;7175;51.978;5.330;2022-11-15T09:36:02;12.40;99.90
14188;DHT22;7175;51.978;5.330;2022-11-15T09:38:31;12.40;99.90
14188;DHT22;7175;51.978;5.330;2022-11-15T09:41:34;12.50;99.90
14188;DHT22;7175;51.978;5.330;2022-11-15T09:44:19;12.60;99.90
14188;DHT22;7175;51.978;5.330;2022-11-15T09:47:02;12.50;99.90
14188;DHT22;7175;51.978;5.330;2022-11-15T09:49:32;12.50;99.90
14188;DHT22;7175;51.978;5.330;2022-11-15T09:52:00;12.70;99.90
14188;DHT22;7175;51.978;5.330;2022-11-15T09:54:31;12.80;99.90
14188;DHT22;7175;51.978;5.330;2022-11-15T09:57:24;12.90;99.90
14188;DHT22;7175;51.978;5.330;2022-11-15T10:00:20;12.90;99.90
14188;DHT22;7175;51.978;5.330;2022-11-15T10:03:12;12.80;99.90
14188;DHT22;7175;51.978;5.330;2022-11-15T10:05:43;12.80;99.90
14188;DHT22;7175;51.978;5.330;2022-11-15T10:08:23;12.80;99.90
14188;DHT22;7175;51.978;5.330;2022-11-15T10:11:00;12.90;99.90
14188;DHT22;7175;51.978;5.330;2022-11-15T10:13:50;13.10;99.90
14188;DHT22;7175;51.978;5.330;2022-11-15T10:16:38;13.20;99.90
14188;DHT22;7175;51.978;5.330;2022-11-15T10:19:20;13.00;99.90
14188;DHT22;7175;51.978;5.330;2022-11-15T10:22:00;13.10;99.90
14188;DHT22;7175;51.978;5.330;2022-11-15T10:24:37;13.30;99.90
14188;DHT22;7175;51.978;5.330;2022-11-15T10:27:10;13.20;99.90
14188;DHT22;7175;51.978;5.330;2022-11-15T10:29:43;13.10;99.90
14188;DHT22;7175;51.978;5.330;2022-11-15T10:32:12;13.10;99.90
14188;DHT22;7175;51.978;5.330;2022-11-15T10:34:42;13.10;99.90
14188;DHT22;7175;51.978;5.330;2022-11-15T10:37:12;13.20;99.90
14188;DHT22;7175;51.978;5.330;2022-11-15T10:39:41;13.20;99.90
14188;DHT22;7175;51.978;5.330;2022-11-15T10:42:24;13.10;99.90
14188;DHT22;7175;51.978;5.330;2022-11-15T10:44:54;13.00;99.90
14188;DHT22;7175;51.978;5.330;2022-11-15T10:47:27;13.00;99.90
14188;DHT22;7175;51.978;5.330;2022-11-15T10:50:26;13.20;99.90
14188;DHT22;7175;51.978;5.330;2022-11-15T10:52:54;13.20;99.90
14188;DHT22;7175;51.978;5.330;2022-11-15T10:55:27;13.30;99.90
14188;DHT22;7175;51.978;5.330;2022-11-15T10:58:02;13.50;99.90
14188;DHT22;7175;51.978;5.330;2022-11-15T11:00:34;13.50;99.90
14188;DHT22;7175;51.978;5.330;2022-11-15T11:03:04;13.60;99.90
14188;DHT22;7175;51.978;5.330;2022-11-15T11:05:36;13.70;99.90
14188;DHT22;7175;51.978;5.330;2022-11-15T11:08:21;13.80;99.90
14188;DHT22;7175;51.978;5.330;2022-11-15T11:10:52;13.90;99.90
14188;DHT22;7175;51.978;5.330;2022-11-15T11:13:30;13.90;99.90
14188;DHT22;7175;51.978;5.330;2022-11-15T11:16:10;13.90;99.90
14188;DHT22;7175;51.978;5.330;2022-11-15T11:18:48;13.60;99.90
14188;DHT22;7175;51.978;5.330;2022-11-15T11:21:24;13.70;99.90
14188;DHT22;7175;51.978;5.330;2022-11-15T11:24:08;13.70;99.90
14188;DHT22;7175;51.978;5.330;2022-11-15T11:26:43;13.60;99.90
14188;DHT22;7175;51.978;5.330;2022-11-15T11:29:24;13.60;99.90
14188;DHT22;7175;51.978;5.330;2022-11-15T11:32:00;13.60;99.90
14188;DHT22;7175;51.978;5.330;2022-11-15T11:34:40;13.50;99.90
14188;DHT22;7175;51.978;5.330;2022-11-15T11:37:24;13.50;99.90
14188;DHT22;7175;51.978;5.330;2022-11-15T11:40:01;13.60;99.90
14188;DHT22;7175;51.978;5.330;2022-11-15T11:42:43;13.60;99.90
14188;DHT22;7175;51.978;5.330;2022-11-15T11:45:19;13.70;99.90
14188;DHT22;7175;51.978;5.330;2022-11-15T11:47:54;13.70;99.90
14188;DHT22;7175;51.978;5.330;2022-11-15T11:50:26;13.70;99.90
14188;DHT22;7175;51.978;5.330;2022-11-15T11:53:01;13.70;99.90
14188;DHT22;7175;51.978;5.330;2022-11-15T11:55:33;13.80;99.90
14188;DHT22;7175;51.978;5.330;2022-11-15T11:58:09;13.90;99.90
14188;DHT22;7175;51.978;5.330;2022-11-15T12:00:41;13.90;99.90
14188;DHT22;7175;51.978;5.330;2022-11-15T12:03:20;14.00;99.90
14188;DHT22;7175;51.978;5.330;2022-11-15T12:05:54;13.90;99.90
14188;DHT22;7175;51.978;5.330;2022-11-15T12:08:31;13.90;99.90
14188;DHT22;7175;51.978;5.330;2022-11-15T12:11:08;13.80;99.90
14188;DHT22;7175;51.978;5.330;2022-11-15T12:13:38;13.80;99.90
14188;DHT22;7175;51.978;5.330;2022-11-15T12:16:14;13.70;99.90
14188;DHT22;7175;51.978;5.330;2022-11-15T12:18:47;13.70;99.90
14188;DHT22;7175;51.978;5.330;2022-11-15T12:21:20;13.90;99.90
14188;DHT22;7175;51.978;5.330;2022-11-15T12:24:02;13.90;99.90
14188;DHT22;7175;51.978;5.330;2022-11-15T12:26:36;13.90;99.90
14188;DHT22;7175;51.978;5.330;2022-11-15T12:29:14;13.90;99.90
14188;DHT22;7175;51.978;5.330;2022-11-15T12:31:45;13.90;99.90
14188;DHT22;7175;51.978;5.330;2022-11-15T12:34:38;14.00;99.90
14188;DHT22;7175;51.978;5.330;2022-11-15T12:40:31;14.00;99.90
14188;DHT22;7175;51.978;5.330;2022-11-15T12:45:46;14.00;99.90
14188;DHT22;7175;51.978;5.330;2022-11-15T12:57:33;14.00;99.90
14188;DHT22;7175;51.978;5.330;2022-11-15T13:03:28;14.10;99.90
14188;DHT22;7175;51.978;5.330;2022-11-15T13:06:04;13.90;99.90
14188;DHT22;7175;51.978;5.330;2022-11-15T13:08:43;13.90;99.90
14188;DHT22;7175;51.978;5.330;2022-11-15T13:11:42;13.80;99.90
14188;DHT22;7175;51.978;5.330;2022-11-15T13:14:43;13.80;99.90
14188;DHT22;7175;51.978;5.330;2022-11-15T13:17:32;13.70;99.90
14188;DHT22;7175;51.978;5.330;2022-11-15T13:20:20;13.60;99.90
14188;DHT22;7175;51.978;5.330;2022-11-15T13:22:50;13.50;99.90
14188;DHT22;7175;51.978;5.330;2022-11-15T13:25:42;13.40;99.90
14188;DHT22;7175;51.978;5.330;2022-11-15T13:28:21;13.50;99.90
14188;DHT22;7175;51.978;5.330;2022-11-15T13:30:53;13.40;99.90
14188;DHT22;7175;51.978;5.330;2022-11-15T13:33:24;13.40;99.90
14188;DHT22;7175;51.978;5.330;2022-11-15T13:36:03;13.30;99.90
14188;DHT22;7175;51.978;5.330;2022-11-15T13:38:34;13.30;99.90
14188;DHT22;7175;51.978;5.330;2022-11-15T13:41:14;13.30;99.90
14188;DHT22;7175;51.978;5.330;2022-11-15T13:43:45;13.20;99.90
14188;DHT22;7175;51.978;5.330;2022-11-15T13:46:17;13.20;99.90
14188;DHT22;7175;51.978;5.330;2022-11-15T13:48:46;13.20;99.90
14188;DHT22;7175;51.978;5.330;2022-11-15T13:51:26;13.20;99.90
14188;DHT22;7175;51.978;5.330;2022-11-15T13:53:57;13.10;99.90
14188;DHT22;7175;51.978;5.330;2022-11-15T13:56:27;13.10;99.90
14188;DHT22;7175;51.978;5.330;2022-11-15T13:58:56;13.10;99.90
14188;DHT22;7175;51.978;5.330;2022-11-15T14:01:28;13.10;99.90
14188;DHT22;7175;51.978;5.330;2022-11-15T14:04:01;13.10;99.90
14188;DHT22;7175;51.978;5.330;2022-11-15T14:06:30;13.10;99.90
14188;DHT22;7175;51.978;5.330;2022-11-15T14:09:14;13.00;99.90
14188;DHT22;7175;51.978;5.330;2022-11-15T14:11:51;13.10;99.90
14188;DHT22;7175;51.978;5.330;2022-11-15T14:14:21;13.10;99.90
14188;DHT22;7175;51.978;5.330;2022-11-15T14:16:52;13.00;99.90
14188;DHT22;7175;51.978;5.330;2022-11-15T14:19:39;13.00;99.90
14188;DHT22;7175;51.978;5.330;2022-11-15T14:22:18;13.00;99.90
14188;DHT22;7175;51.978;5.330;2022-11-15T14:25:05;13.00;99.90
14188;DHT22;7175;51.978;5.330;2022-11-15T14:27:34;13.00;99.90
14188;DHT22;7175;51.978;5.330;2022-11-15T14:30:03;13.00;99.90
14188;DHT22;7175;51.978;5.330;2022-11-15T14:32:43;13.00;99.90
14188;DHT22;7175;51.978;5.330;2022-11-15T14:35:15;13.00;99.90
14188;DHT22;7175;51.978;5.330;2022-11-15T14:37:44;13.00;99.90
14188;DHT22;7175;51.978;5.330;2022-11-15T14:40:14;13.00;99.90
14188;DHT22;7175;51.978;5.330;2022-11-15T14:42:45;13.00;99.90
14188;DHT22;7175;51.978;5.330;2022-11-15T14:45:15;13.00;99.90
14188;DHT22;7175;51.978;5.330;2022-11-15T14:47:45;13.00;99.90
14188;DHT22;7175;51.978;5.330;2022-11-15T14:50:14;13.00;99.90
14188;DHT22;7175;51.978;5.330;2022-11-15T14:52:44;13.00;99.90
14188;DHT22;7175;51.978;5.330;2022-11-15T14:55:17;13.00;99.90
14188;DHT22;7175;51.978;5.330;2022-11-15T14:57:47;12.90;99.90
14188;DHT22;7175;51.978;5.330;2022-11-15T15:00:16;12.90;99.90
14188;DHT22;7175;51.978;5.330;2022-11-15T15:02:46;12.80;99.90
14188;DHT22;7175;51.978;5.330;2022-11-15T15:05:18;12.80;99.90
14188;DHT22;7175;51.978;5.330;2022-11-15T15:07:46;12.90;99.90
14188;DHT22;7175;51.978;5.330;2022-11-15T15:10:17;12.80;99.90
14188;DHT22;7175;51.978;5.330;2022-11-15T15:13:06;12.90;99.90
14188;DHT22;7175;51.978;5.330;2022-11-15T15:15:37;12.80;99.90
14188;DHT22;7175;51.978;5.330;2022-11-15T15:18:06;12.80;99.90
14188;DHT22;7175;51.978;5.330;2022-11-15T15:20:36;12.80;99.90
14188;DHT22;7175;51.978;5.330;2022-11-15T15:23:07;12.80;99.90
14188;DHT22;7175;51.978;5.330;2022-11-15T15:25:37;12.80;99.90
14188;DHT22;7175;51.978;5.330;2022-11-15T15:28:05;12.80;99.90
14188;DHT22;7175;51.978;5.330;2022-11-15T15:30:33;12.90;99.90
14188;DHT22;7175;51.978;5.330;2022-11-15T15:33:01;12.90;99.90
14188;DHT22;7175;51.978;5.330;2022-11-15T15:35:32;12.90;99.90
14188;DHT22;7175;51.978;5.330;2022-11-15T15:38:02;12.90;99.90
14188;DHT22;7175;51.978;5.330;2022-11-15T15:40:32;13.00;99.90
14188;DHT22;7175;51.978;5.330;2022-11-15T15:43:00;13.00;99.90
14188;DHT22;7175;51.978;5.330;2022-11-15T15:45:29;12.90;99.90
14188;DHT22;7175;51.978;5.330;2022-11-15T15:47:57;13.00;99.90
14188;DHT22;7175;51.978;5.330;2022-11-15T15:50:26;13.00;99.90
14188;DHT22;7175;51.978;5.330;2022-11-15T15:52:59;12.90;99.90
14188;DHT22;7175;51.978;5.330;2022-11-15T15:55:27;12.90;99.90
14188;DHT22;7175;51.978;5.330;2022-11-15T15:57:55;12.90;99.90
14188;DHT22;7175;51.978;5.330;2022-11-15T16:00:25;12.90;99.90
14188;DHT22;7175;51.978;5.330;2022-11-15T16:02:53;12.90;99.90
14188;DHT22;7175;51.978;5.330;2022-11-15T16:05:22;12.90;99.90
14188;DHT22;7175;51.978;5.330;2022-11-15T16:07:50;12.90;99.90
14188;DHT22;7175;51.978;5.330;2022-11-15T16:10:23;12.80;99.90
14188;DHT22;7175;51.978;5.330;2022-11-15T16:12:52;12.80;99.90
14188;DHT22;7175;51.978;5.330;2022-11-15T16:15:22;12.80;99.90
14188;DHT22;7175;51.978;5.330;2022-11-15T16:17:52;12.80;99.90
14188;DHT22;7175;51.978;5.330;2022-11-15T16:20:33;12.80;99.90
14188;DHT22;7175;51.978;5.330;2022-11-15T16:23:04;12.80;99.90
14188;DHT22;7175;51.978;5.330;2022-11-15T16:25:40;12.80;99.90
14188;DHT22;7175;51.978;5.330;2022-11-15T16:28:20;12.80;99.90
14188;DHT22;7175;51.978;5.330;2022-11-15T16:30:58;12.80;99.90
14188;DHT22;7175;51.978;5.330;2022-11-15T16:33:26;12.80;99.90
14188;DHT22;7175;51.978;5.330;2022-11-15T16:35:54;12.90;99.90
14188;DHT22;7175;51.978;5.330;2022-11-15T16:38:22;12.90;99.90
14188;DHT22;7175;51.978;5.330;2022-11-15T16:40:52;12.90;99.90
14188;DHT22;7175;51.978;5.330;2022-11-15T16:43:20;12.90;99.90
14188;DHT22;7175;51.978;5.330;2022-11-15T16:45:49;12.90;99.90